createdAt,value
2023-04-10T00:00:08.475Z,99228.59
2023-04-10T00:01:10.667Z,99227.56
2023-04-10T00:02:12.542Z,99229.69
2023-04-10T00:03:14.898Z,99225.38
2023-04-10T00:04:17.603Z,99231.56
2023-04-10T00:05:19.508Z,99227.25
2023-04-10T00:06:21.878Z,99229.94
2023-04-10T00:07:23.987Z,99229.94
2023-04-10T00:08:26.544Z,99232.09
2023-04-10T00:09:30.732Z,99223.75
2023-04-10T00:10:33.418Z,99225.63
2023-04-10T00:11:35.670Z,99232.63
2023-04-10T00:12:38.113Z,99230.22
2023-04-10T00:13:40.042Z,99224.03
2023-04-10T00:14:42.357Z,99233.69
2023-04-10T00:15:44.196Z,99225.91
2023-04-10T00:16:46.452Z,99231.28
2023-04-10T00:17:50.620Z,99226.16
2023-04-10T00:18:52.806Z,99223.47
2023-04-10T00:19:54.661Z,99227.78
2023-04-10T00:20:56.674Z,99220.25
2023-04-10T00:21:58.562Z,99222.94
2023-04-10T00:23:00.436Z,99221.84
2023-04-10T00:24:02.502Z,99221.03
2023-04-10T00:25:06.549Z,99223.47
2023-04-10T00:26:08.983Z,99219.66
2023-04-10T00:27:10.888Z,99223.16
2023-04-10T00:28:12.784Z,99218.84
2023-04-10T00:29:14.690Z,99216.16
2023-04-10T00:30:16.626Z,99219.66
2023-04-10T00:31:18.690Z,99218.84
2023-04-10T00:32:20.695Z,99214.28
2023-04-10T00:33:22.892Z,99205.41
2023-04-10T00:34:24.773Z,99218.06
2023-04-10T00:35:27.018Z,99209.97
2023-04-10T00:36:29.403Z,99211.59
2023-04-10T00:37:31.383Z,99218.06
2023-04-10T00:38:33.383Z,99207.81
2023-04-10T00:39:35.478Z,99205.66
2023-04-10T00:40:37.376Z,99213.75
2023-04-10T00:41:39.544Z,99208.34
2023-04-10T00:42:41.678Z,99203.25
2023-04-10T00:43:46.842Z,99207.81
2023-04-10T00:44:48.739Z,99198.13
2023-04-10T00:45:51.007Z,99198.13
2023-04-10T00:46:53.320Z,99191.38
2023-04-10T00:47:56.206Z,99200.00
2023-04-10T00:48:58.654Z,99191.13
2023-04-10T00:50:01.038Z,99197.84
2023-04-10T00:51:06.101Z,99203.78
2023-04-10T00:52:08.595Z,99207.28
2023-04-10T00:53:10.781Z,99201.34
2023-04-10T00:54:13.265Z,99203.78
2023-04-10T00:55:16.061Z,99199.72
2023-04-10T00:56:19.412Z,99201.34
2023-04-10T00:57:21.415Z,99191.88
2023-04-10T00:58:23.455Z,99194.34
2023-04-10T00:59:25.704Z,99194.34
2023-04-10T01:00:27.617Z,99194.56
2023-04-10T01:01:30.094Z,99191.09
2023-04-10T01:02:32.515Z,99196.72
2023-04-10T01:03:36.137Z,99195.66
2023-04-10T01:04:38.588Z,99199.41
2023-04-10T01:05:57.650Z,99194.09
2023-04-10T01:07:10.829Z,99198.38
2023-04-10T01:08:23.559Z,99198.91
2023-04-10T01:10:03.609Z,99199.47
2023-04-10T01:11:27.519Z,99208.34
2023-04-10T01:12:56.170Z,99199.19
2023-04-10T01:14:25.649Z,99198.66
2023-04-10T01:15:37.474Z,99205.06
2023-04-10T01:17:13.391Z,99207.22
2023-04-10T01:18:29.459Z,99206.13
2023-04-10T01:20:12.318Z,99207.78
2023-04-10T01:21:17.248Z,99212.84
2023-04-10T01:22:25.963Z,99211.50
2023-04-10T01:24:07.708Z,99213.69
2023-04-10T01:25:32.469Z,99215.53
2023-04-10T01:27:11.202Z,99219.84
2023-04-10T01:28:19.170Z,99215.47
2023-04-10T01:29:27.259Z,99212.25
2023-04-10T01:30:32.199Z,99216.53
2023-04-10T01:31:42.819Z,99217.88
2023-04-10T01:32:44.918Z,99220.28
2023-04-10T01:33:56.836Z,99213.59
2023-04-10T01:35:06.812Z,99213.59
2023-04-10T01:36:11.531Z,99220.03
2023-04-10T01:37:21.483Z,99211.97
2023-04-10T01:38:26.656Z,99218.69
2023-04-10T01:39:31.513Z,99206.84
2023-04-10T01:40:37.410Z,99211.91
2023-04-10T01:41:43.974Z,99209.81
2023-04-10T01:42:53.473Z,99213.03
2023-04-10T01:43:58.024Z,99214.34
2023-04-10T01:45:02.217Z,99213.53
2023-04-10T01:46:06.044Z,99210.03
2023-04-10T01:47:08.232Z,99207.34
2023-04-10T01:48:11.442Z,99204.66
2023-04-10T01:49:14.562Z,99205.47
2023-04-10T01:50:17.742Z,99205.47
2023-04-10T01:51:21.156Z,99205.47
2023-04-10T01:52:24.680Z,99206.28
2023-04-10T01:53:27.771Z,99208.97
2023-04-10T01:54:33.587Z,99203.84
2023-04-10T01:55:39.978Z,99204.97
2023-04-10T01:56:42.237Z,99205.47
2023-04-10T01:57:45.627Z,99204.91
2023-04-10T01:58:48.114Z,99196.03
2023-04-10T01:59:50.733Z,99196.03
2023-04-10T02:00:52.933Z,99203.56
2023-04-10T02:01:59.258Z,99189.31
2023-04-10T02:03:01.617Z,99192.00
2023-04-10T02:04:04.025Z,99200.59
2023-04-10T02:05:06.698Z,99197.13
2023-04-10T02:06:15.804Z,99201.13
2023-04-10T02:07:39.862Z,99201.72
2023-04-10T02:08:53.002Z,99199.28
2023-04-10T02:10:13.255Z,99193.66
2023-04-10T02:11:55.299Z,99203.91
2023-04-10T02:13:06.554Z,99204.66
2023-04-10T02:14:12.015Z,99198.44
2023-04-10T02:15:19.229Z,99199.00
2023-04-10T02:16:23.667Z,99191.44
2023-04-10T02:17:30.421Z,99195.75
2023-04-10T02:18:36.664Z,99196.81
2023-04-10T02:19:41.317Z,99203.28
2023-04-10T02:20:43.939Z,99197.34
2023-04-10T02:21:47.172Z,99200.84
2023-04-10T02:22:50.095Z,99204.34
2023-04-10T02:23:52.146Z,99203.53
2023-04-10T02:24:55.036Z,99202.94
2023-04-10T02:25:57.215Z,99202.72
2023-04-10T02:26:59.444Z,99205.41
2023-04-10T02:28:08.465Z,99205.69
2023-04-10T02:29:10.553Z,99202.94
2023-04-10T02:30:12.398Z,99207.25
2023-04-10T02:31:15.969Z,99202.13
2023-04-10T02:32:19.351Z,99212.06
2023-04-10T02:33:21.483Z,99203.78
2023-04-10T02:34:23.663Z,99201.56
2023-04-10T02:35:26.448Z,99211.25
2023-04-10T02:36:28.768Z,99204.56
2023-04-10T02:37:32.813Z,99209.63
2023-04-10T02:38:34.882Z,99202.94
2023-04-10T02:39:37.586Z,99203.78
2023-04-10T02:40:39.482Z,99204.81
2023-04-10T02:41:41.516Z,99209.63
2023-04-10T02:42:43.613Z,99205.63
2023-04-10T02:43:45.463Z,99205.06
2023-04-10T02:44:48.940Z,99199.69
2023-04-10T02:45:51.280Z,99199.44
2023-04-10T02:46:53.431Z,99205.06
2023-04-10T02:47:55.388Z,99206.69
2023-04-10T02:48:57.935Z,99199.44
2023-04-10T02:49:59.739Z,99200.75
2023-04-10T02:51:01.832Z,99202.66
2023-04-10T02:52:03.705Z,99200.22
2023-04-10T02:53:05.995Z,99199.16
2023-04-10T02:54:07.914Z,99202.66
2023-04-10T02:55:10.425Z,99199.97
2023-04-10T02:56:12.588Z,99210.97
2023-04-10T02:57:14.462Z,99205.59
2023-04-10T02:58:17.383Z,99209.91
2023-04-10T02:59:19.835Z,99201.03
2023-04-10T03:00:22.969Z,99202.09
2023-04-10T03:01:24.900Z,99207.22
2023-04-10T03:02:27.251Z,99195.91
2023-04-10T03:03:29.260Z,99202.09
2023-04-10T03:04:33.309Z,99201.84
2023-04-10T03:05:35.636Z,99206.66
2023-04-10T03:06:37.645Z,99190.78
2023-04-10T03:07:39.462Z,99198.59
2023-04-10T03:08:41.297Z,99195.91
2023-04-10T03:09:43.233Z,99193.22
2023-04-10T03:10:46.860Z,99195.09
2023-04-10T03:11:48.832Z,99196.16
2023-04-10T03:12:50.687Z,99198.59
2023-04-10T03:13:52.748Z,99192.69
2023-04-10T03:14:55.134Z,99190.78
2023-04-10T03:15:57.262Z,99188.91
2023-04-10T03:16:59.110Z,99191.59
2023-04-10T03:18:01.222Z,99190.78
2023-04-10T03:19:03.180Z,99180.31
2023-04-10T03:20:05.927Z,99186.47
2023-04-10T03:21:08.014Z,99183.78
2023-04-10T03:22:11.031Z,99181.09
2023-04-10T03:23:13.322Z,99177.63
2023-04-10T03:24:16.484Z,99179.72
2023-04-10T03:25:18.747Z,99172.47
2023-04-10T03:26:21.124Z,99168.72
2023-04-10T03:27:23.357Z,99177.84
2023-04-10T03:28:25.168Z,99173.03
2023-04-10T03:29:27.296Z,99174.91
2023-04-10T03:30:29.256Z,99175.72
2023-04-10T03:31:31.629Z,99175.72
2023-04-10T03:32:33.486Z,99171.66
2023-04-10T03:33:35.479Z,99164.66
2023-04-10T03:34:37.409Z,99167.63
2023-04-10T03:35:39.378Z,99167.34
2023-04-10T03:36:41.821Z,99175.97
2023-04-10T03:37:43.804Z,99161.97
2023-04-10T03:38:45.720Z,99164.94
2023-04-10T03:39:47.767Z,99174.34
2023-04-10T03:40:49.671Z,99167.34
2023-04-10T03:41:51.588Z,99170.31
2023-04-10T03:42:53.601Z,99168.41
2023-04-10T03:43:55.807Z,99171.91
2023-04-10T03:44:58.866Z,99169.22
2023-04-10T03:46:01.811Z,99170.31
2023-04-10T03:47:03.906Z,99159.81
2023-04-10T03:48:06.431Z,99166.00
2023-04-10T03:49:08.487Z,99164.38
2023-04-10T03:50:10.693Z,99169.22
2023-04-10T03:51:13.306Z,99165.44
2023-04-10T03:52:15.581Z,99166.81
2023-04-10T03:53:17.754Z,99160.06
2023-04-10T03:54:19.903Z,99161.94
2023-04-10T03:55:21.785Z,99162.75
2023-04-10T03:56:23.855Z,99165.44
2023-04-10T03:57:25.717Z,99159.00
2023-04-10T03:58:29.005Z,99161.16
2023-04-10T03:59:38.316Z,99159.25
2023-04-10T04:00:41.303Z,99159.00
2023-04-10T04:01:45.661Z,99150.38
2023-04-10T04:02:51.027Z,99152.28
2023-04-10T04:03:53.485Z,99155.75
2023-04-10T04:04:55.875Z,99156.31
2023-04-10T04:05:57.784Z,99157.66
2023-04-10T04:06:59.562Z,99153.06
2023-04-10T04:08:01.735Z,99155.22
2023-04-10T04:09:03.956Z,99156.84
2023-04-10T04:10:06.700Z,99153.84
2023-04-10T04:11:08.843Z,99156.03
2023-04-10T04:12:10.686Z,99155.44
2023-04-10T04:13:12.750Z,99152.28
2023-04-10T04:14:14.892Z,99149.84
2023-04-10T04:15:17.238Z,99149.25
2023-04-10T04:16:20.741Z,99146.09
2023-04-10T04:17:22.572Z,99149.84
2023-04-10T04:18:24.354Z,99143.63
2023-04-10T04:19:26.322Z,99142.00
2023-04-10T04:20:28.490Z,99139.31
2023-04-10T04:21:31.419Z,99135.34
2023-04-10T04:22:33.314Z,99142.00
2023-04-10T04:23:35.540Z,99142.31
2023-04-10T04:24:37.449Z,99139.91
2023-04-10T04:25:39.357Z,99140.13
2023-04-10T04:26:41.466Z,99149.59
2023-04-10T04:27:43.278Z,99141.78
2023-04-10T04:28:45.220Z,99140.44
2023-04-10T04:29:47.471Z,99145.81
2023-04-10T04:30:49.422Z,99137.75
2023-04-10T04:31:51.706Z,99141.53
2023-04-10T04:32:53.590Z,99146.63
2023-04-10T04:34:04.598Z,99142.34
2023-04-10T04:35:07.456Z,99144.50
2023-04-10T04:36:09.707Z,99142.88
2023-04-10T04:37:11.826Z,99141.25
2023-04-10T04:38:13.758Z,99136.44
2023-04-10T04:39:16.335Z,99137.75
2023-04-10T04:40:18.440Z,99142.06
2023-04-10T04:41:20.758Z,99143.41
2023-04-10T04:42:22.946Z,99143.69
2023-04-10T04:43:25.079Z,99141.00
2023-04-10T04:44:26.868Z,99136.44
2023-04-10T04:45:29.719Z,99138.56
2023-04-10T04:46:51.782Z,99140.78
2023-04-10T04:47:53.594Z,99138.03
2023-04-10T04:48:55.774Z,99131.59
2023-04-10T04:49:57.978Z,99138.84
2023-04-10T04:50:59.867Z,99138.84
2023-04-10T04:52:01.995Z,99139.13
2023-04-10T04:53:12.531Z,99142.88
2023-04-10T04:54:14.589Z,99139.66
2023-04-10T04:55:16.434Z,99144.50
2023-04-10T04:56:18.250Z,99137.22
2023-04-10T04:57:20.337Z,99146.38
2023-04-10T04:58:30.903Z,99148.53
2023-04-10T04:59:32.966Z,99146.09
2023-04-10T05:00:34.748Z,99150.69
2023-04-10T05:01:36.767Z,99150.69
2023-04-10T05:02:38.961Z,99148.00
2023-04-10T05:03:41.376Z,99154.16
2023-04-10T05:04:43.571Z,99152.56
2023-04-10T05:05:45.586Z,99152.56
2023-04-10T05:06:47.735Z,99156.31
2023-04-10T05:07:49.850Z,99158.75
2023-04-10T05:08:53.299Z,99154.97
2023-04-10T05:09:55.681Z,99159.53
2023-04-10T05:10:57.595Z,99157.66
2023-04-10T05:12:00.230Z,99160.63
2023-04-10T05:13:02.481Z,99154.97
2023-04-10T05:14:04.576Z,99158.75
2023-04-10T05:15:07.572Z,99159.53
2023-04-10T05:16:09.546Z,99158.75
2023-04-10T05:17:11.657Z,99164.38
2023-04-10T05:18:14.183Z,99161.69
2023-04-10T05:19:16.364Z,99168.69
2023-04-10T05:20:18.634Z,99164.94
2023-04-10T05:21:20.502Z,99155.50
2023-04-10T05:22:22.666Z,99167.63
2023-04-10T05:23:24.605Z,99162.50
2023-04-10T05:24:26.523Z,99171.09
2023-04-10T05:25:28.450Z,99169.22
2023-04-10T05:26:30.282Z,99163.84
2023-04-10T05:27:32.199Z,99164.94
2023-04-10T05:28:33.986Z,99159.28
2023-04-10T05:29:36.227Z,99168.97
2023-04-10T05:30:38.075Z,99169.78
2023-04-10T05:31:39.865Z,99166.03
2023-04-10T05:32:41.987Z,99162.78
2023-04-10T05:33:44.128Z,99160.41
2023-04-10T05:34:46.190Z,99156.09
2023-04-10T05:35:48.271Z,99164.16
2023-04-10T05:36:50.198Z,99161.47
2023-04-10T05:37:52.273Z,99148.03
2023-04-10T05:38:54.282Z,99152.34
2023-04-10T05:39:56.294Z,99159.34
2023-04-10T05:40:58.225Z,99152.88
2023-04-10T05:42:00.124Z,99158.53
2023-04-10T05:43:03.949Z,99155.56
2023-04-10T05:44:05.885Z,99162.84
2023-04-10T05:45:09.621Z,99159.88
2023-04-10T05:46:12.240Z,99161.78
2023-04-10T05:47:14.074Z,99168.75
2023-04-10T05:48:16.181Z,99158.81
2023-04-10T05:49:18.370Z,99163.13
2023-04-10T05:50:21.560Z,99163.38
2023-04-10T05:51:27.613Z,99168.22
2023-04-10T05:52:29.398Z,99167.94
2023-04-10T05:53:38.336Z,99169.84
2023-04-10T05:54:40.376Z,99167.44
2023-04-10T05:55:42.399Z,99171.19
2023-04-10T05:56:44.257Z,99170.94
2023-04-10T05:57:46.946Z,99167.69
2023-04-10T05:58:48.909Z,99169.31
2023-04-10T05:59:53.647Z,99174.41
2023-04-10T06:00:58.574Z,99177.63
2023-04-10T06:02:01.003Z,99173.88
2023-04-10T06:03:03.932Z,99179.00
2023-04-10T06:04:06.125Z,99174.41
2023-04-10T06:05:08.594Z,99172.00
2023-04-10T06:06:33.887Z,99176.03
2023-04-10T06:07:36.246Z,99172.53
2023-04-10T06:08:38.078Z,99183.28
2023-04-10T06:09:39.919Z,99167.44
2023-04-10T06:10:41.997Z,99171.72
2023-04-10T06:11:43.869Z,99177.38
2023-04-10T06:12:45.871Z,99168.50
2023-04-10T06:13:47.686Z,99172.00
2023-04-10T06:14:49.762Z,99173.88
2023-04-10T06:15:51.993Z,99175.50
2023-04-10T06:16:54.192Z,99170.38
2023-04-10T06:17:56.514Z,99182.75
2023-04-10T06:18:58.854Z,99175.50
2023-04-10T06:20:04.704Z,99173.34
2023-04-10T06:21:07.377Z,99178.72
2023-04-10T06:22:09.390Z,99175.22
2023-04-10T06:23:12.343Z,99175.22
2023-04-10T06:24:14.345Z,99177.38
2023-04-10T06:25:16.732Z,99169.84
2023-04-10T06:26:18.645Z,99173.06
2023-04-10T06:27:20.774Z,99169.84
2023-04-10T06:28:23.108Z,99166.63
2023-04-10T06:29:25.634Z,99169.03
2023-04-10T06:30:27.500Z,99171.19
2023-04-10T06:31:33.163Z,99169.63
2023-04-10T06:32:35.573Z,99169.84
2023-04-10T06:33:37.690Z,99168.81
2023-04-10T06:34:41.881Z,99164.75
2023-04-10T06:35:43.906Z,99165.53
2023-04-10T06:36:46.202Z,99165.00
2023-04-10T06:37:48.560Z,99165.00
2023-04-10T06:38:50.609Z,99159.34
2023-04-10T06:39:52.448Z,99166.06
2023-04-10T06:40:54.388Z,99167.13
2023-04-10T06:41:57.797Z,99167.41
2023-04-10T06:43:00.832Z,99170.91
2023-04-10T06:44:03.583Z,99172.53
2023-04-10T06:45:06.810Z,99169.03
2023-04-10T06:46:10.023Z,99163.09
2023-04-10T06:47:13.395Z,99163.91
2023-04-10T06:48:15.594Z,99167.66
2023-04-10T06:49:17.553Z,99168.22
2023-04-10T06:50:19.648Z,99170.34
2023-04-10T06:51:21.502Z,99157.72
2023-04-10T06:52:23.803Z,99158.78
2023-04-10T06:53:25.659Z,99159.84
2023-04-10T06:54:27.797Z,99158.78
2023-04-10T06:55:30.892Z,99160.41
2023-04-10T06:56:33.083Z,99157.72
2023-04-10T06:57:35.584Z,99157.94
2023-04-10T06:58:37.696Z,99155.03
2023-04-10T06:59:39.769Z,99155.03
2023-04-10T07:00:42.115Z,99154.78
2023-04-10T07:01:43.990Z,99153.16
2023-04-10T07:02:46.242Z,99152.88
2023-04-10T07:03:48.451Z,99150.47
2023-04-10T07:04:51.315Z,99148.59
2023-04-10T07:05:53.140Z,99149.13
2023-04-10T07:06:55.372Z,99140.25
2023-04-10T07:07:57.285Z,99154.50
2023-04-10T07:08:59.216Z,99144.81
2023-04-10T07:10:01.286Z,99144.00
2023-04-10T07:11:03.215Z,99149.41
2023-04-10T07:12:05.422Z,99149.41
2023-04-10T07:13:09.183Z,99142.69
2023-04-10T07:14:11.790Z,99147.00
2023-04-10T07:15:14.050Z,99141.06
2023-04-10T07:16:17.126Z,99141.88
2023-04-10T07:17:19.102Z,99143.50
2023-04-10T07:18:20.942Z,99140.00
2023-04-10T07:19:22.804Z,99143.50
2023-04-10T07:20:25.075Z,99141.88
2023-04-10T07:21:28.081Z,99132.19
2023-04-10T07:22:31.027Z,99140.00
2023-04-10T07:23:33.009Z,99138.38
2023-04-10T07:24:35.054Z,99141.63
2023-04-10T07:25:37.056Z,99131.66
2023-04-10T07:26:38.838Z,99143.22
2023-04-10T07:27:41.185Z,99138.94
2023-04-10T07:28:43.041Z,99139.47
2023-04-10T07:29:44.960Z,99143.78
2023-04-10T07:30:47.181Z,99145.91
2023-04-10T07:31:49.353Z,99142.97
2023-04-10T07:32:51.650Z,99140.88
2023-04-10T07:33:53.623Z,99146.25
2023-04-10T07:34:56.780Z,99144.63
2023-04-10T07:35:58.648Z,99147.31
2023-04-10T07:37:00.468Z,99138.41
2023-04-10T07:38:02.689Z,99148.34
2023-04-10T07:39:04.593Z,99138.41
2023-04-10T07:40:08.724Z,99140.88
2023-04-10T07:41:12.196Z,99145.66
2023-04-10T07:42:14.085Z,99143.56
2023-04-10T07:43:15.996Z,99137.59
2023-04-10T07:44:18.573Z,99150.00
2023-04-10T07:45:20.664Z,99136.53
2023-04-10T07:46:22.728Z,99142.72
2023-04-10T07:47:24.899Z,99146.25
2023-04-10T07:48:27.463Z,99144.13
2023-04-10T07:49:29.589Z,99146.00
2023-04-10T07:50:32.248Z,99152.19
2023-04-10T07:51:34.243Z,99146.25
2023-04-10T07:52:36.130Z,99141.69
2023-04-10T07:53:38.101Z,99151.13
2023-04-10T07:54:39.897Z,99141.16
2023-04-10T07:55:45.407Z,99142.78
2023-04-10T07:56:47.298Z,99143.84
2023-04-10T07:57:49.369Z,99140.34
2023-04-10T07:58:52.166Z,99137.41
2023-04-10T07:59:54.282Z,99137.41
2023-04-10T08:00:56.308Z,99127.47
2023-04-10T08:01:58.311Z,99136.59
2023-04-10T08:03:00.896Z,99132.56
2023-04-10T08:04:05.569Z,99128.00
2023-04-10T08:05:08.607Z,99133.38
2023-04-10T08:06:11.885Z,99134.19
2023-04-10T08:07:13.790Z,99132.31
2023-04-10T08:08:18.495Z,99122.91
2023-04-10T08:09:20.512Z,99121.56
2023-04-10T08:10:22.598Z,99129.63
2023-04-10T08:11:31.042Z,99126.97
2023-04-10T08:12:34.633Z,99118.59
2023-04-10T08:13:36.778Z,99124.78
2023-04-10T08:14:38.976Z,99125.34
2023-04-10T08:15:40.896Z,99130.97
2023-04-10T08:16:43.001Z,99128.84
2023-04-10T08:17:44.964Z,99130.47
2023-04-10T08:18:47.429Z,99129.66
2023-04-10T08:19:49.227Z,99126.97
2023-04-10T08:20:51.442Z,99123.22
2023-04-10T08:21:53.312Z,99125.09
2023-04-10T08:22:56.236Z,99127.53
2023-04-10T08:24:03.163Z,99118.63
2023-04-10T08:25:05.949Z,99124.03
2023-04-10T08:26:08.013Z,99125.38
2023-04-10T08:27:09.933Z,99124.56
2023-04-10T08:28:12.120Z,99118.13
2023-04-10T08:29:14.280Z,99114.63
2023-04-10T08:30:16.364Z,99122.41
2023-04-10T08:31:23.188Z,99112.19
2023-04-10T08:32:26.710Z,99117.84
2023-04-10T08:33:28.609Z,99116.22
2023-04-10T08:34:30.881Z,99114.91
2023-04-10T08:35:32.685Z,99122.97
2023-04-10T08:36:35.235Z,99110.31
2023-04-10T08:37:37.648Z,99114.91
2023-04-10T08:38:39.904Z,99113.59
2023-04-10T08:39:42.198Z,99106.59
2023-04-10T08:40:44.805Z,99107.94
2023-04-10T08:41:46.973Z,99106.88
2023-04-10T08:42:49.516Z,99108.19
2023-04-10T08:43:51.709Z,99102.81
2023-04-10T08:44:53.751Z,99107.69
2023-04-10T08:45:56.479Z,99103.09
2023-04-10T08:47:01.072Z,99099.59
2023-04-10T08:48:05.823Z,99099.06
2023-04-10T08:49:17.313Z,99100.69
2023-04-10T08:50:20.681Z,99099.34
2023-04-10T08:51:28.939Z,99101.75
2023-04-10T08:52:34.923Z,99095.31
2023-04-10T08:53:43.584Z,99094.22
2023-04-10T08:54:54.082Z,99090.50
2023-04-10T08:55:56.466Z,99103.38
2023-04-10T08:57:01.369Z,99092.63
2023-04-10T08:58:04.763Z,99103.38
2023-04-10T08:59:08.416Z,99104.19
2023-04-10T09:01:21.715Z,99098.84
2023-04-10T09:02:25.331Z,99108.25
2023-04-10T09:03:28.047Z,99098.56
2023-04-10T09:04:30.483Z,99101.81
2023-04-10T09:05:33.240Z,99094.28
2023-04-10T09:06:35.201Z,99090.78
2023-04-10T09:07:37.266Z,99102.34
2023-04-10T09:08:39.109Z,99095.34
2023-04-10T09:09:41.190Z,99096.16
2023-04-10T09:10:43.022Z,99095.34
2023-04-10T09:11:56.407Z,99088.91
2023-04-10T09:12:58.280Z,99089.97
2023-04-10T09:14:00.233Z,99091.84
2023-04-10T09:15:02.294Z,99089.16
2023-04-10T09:16:05.374Z,99089.44
2023-04-10T09:17:21.773Z,99087.31
2023-04-10T09:18:40.842Z,99085.16
2023-04-10T09:19:45.464Z,99088.94
2023-04-10T09:20:51.509Z,99089.72
2023-04-10T09:21:53.519Z,99093.78
2023-04-10T09:22:55.896Z,99083.00
2023-04-10T09:24:02.078Z,99082.75
2023-04-10T09:25:05.416Z,99084.63
2023-04-10T09:26:31.338Z,99077.09
2023-04-10T09:27:37.301Z,99074.13
2023-04-10T09:29:06.698Z,99073.09
2023-04-10T09:30:09.507Z,99055.03
2023-04-10T09:31:34.779Z,99060.72
2023-04-10T09:32:38.788Z,99065.25
2023-04-10T09:33:42.181Z,99062.28
2023-04-10T09:34:59.000Z,99070.09
2023-04-10T09:36:01.308Z,99066.88
2023-04-10T09:37:03.385Z,99058.00
2023-04-10T09:38:20.742Z,99060.72
2023-04-10T09:39:38.486Z,99061.75
2023-04-10T09:40:40.472Z,99053.97
2023-04-10T09:41:55.570Z,99053.44
2023-04-10T09:42:57.780Z,99049.94
2023-04-10T09:44:09.103Z,99053.44
2023-04-10T09:45:11.034Z,99047.50
2023-04-10T09:46:26.078Z,99051.56
2023-04-10T09:47:29.386Z,99048.06
2023-04-10T09:48:31.690Z,99042.91
2023-04-10T09:49:53.001Z,99038.91
2023-04-10T09:50:55.189Z,99039.72
2023-04-10T09:51:57.791Z,99038.09
2023-04-10T09:52:59.580Z,99035.16
2023-04-10T09:54:03.833Z,99030.84
2023-04-10T09:55:10.495Z,99037.31
2023-04-10T09:56:13.268Z,99030.31
2023-04-10T09:57:19.742Z,99025.19
2023-04-10T09:58:22.874Z,99027.34
2023-04-10T09:59:24.971Z,99024.66
2023-04-10T10:00:28.019Z,99020.06
2023-04-10T10:01:35.157Z,99024.66
2023-04-10T10:02:40.040Z,99022.25
2023-04-10T10:03:44.047Z,99019.56
2023-04-10T10:04:49.702Z,99021.22
2023-04-10T10:05:52.141Z,99025.50
2023-04-10T10:06:54.899Z,99025.25
2023-04-10T10:07:58.489Z,99029.81
2023-04-10T10:09:05.762Z,99018.50
2023-04-10T10:10:12.126Z,99015.81
2023-04-10T10:11:19.952Z,99026.03
2023-04-10T10:12:40.769Z,99012.06
2023-04-10T10:13:52.672Z,99012.31
2023-04-10T10:15:11.666Z,99018.81
2023-04-10T10:16:22.646Z,99015.56
2023-04-10T10:17:30.377Z,99012.06
2023-04-10T10:19:16.450Z,99006.66
2023-04-10T10:20:22.437Z,99002.38
2023-04-10T10:21:26.914Z,98999.16
2023-04-10T10:22:29.309Z,98996.72
2023-04-10T10:23:33.836Z,99001.31
2023-04-10T10:24:40.084Z,98992.16
2023-04-10T10:25:45.943Z,98988.66
2023-04-10T10:26:50.343Z,98986.78
2023-04-10T10:27:54.484Z,98987.31
2023-04-10T10:28:59.127Z,98980.84
2023-04-10T10:30:08.553Z,98976.53
2023-04-10T10:31:20.288Z,98985.16
2023-04-10T10:32:23.761Z,98983.25
2023-04-10T10:33:29.546Z,98985.94
2023-04-10T10:34:31.945Z,98982.19
2023-04-10T10:35:37.653Z,98979.22
2023-04-10T10:36:41.337Z,98974.63
2023-04-10T10:37:46.336Z,98978.13
2023-04-10T10:39:06.840Z,98968.97
2023-04-10T10:40:20.540Z,98958.78
2023-04-10T10:41:40.938Z,98955.53
2023-04-10T10:42:46.132Z,98952.31
2023-04-10T10:44:08.759Z,98950.16
2023-04-10T10:45:19.692Z,98942.59
2023-04-10T10:46:38.541Z,98945.84
2023-04-10T10:47:53.222Z,98954.72
2023-04-10T10:49:00.949Z,98940.47
2023-04-10T10:50:04.393Z,98947.19
2023-04-10T10:51:06.729Z,98949.09
2023-04-10T10:52:08.882Z,98943.13
2023-04-10T10:53:38.960Z,98951.22
2023-04-10T10:54:47.324Z,98949.63
2023-04-10T10:55:59.367Z,98942.63
2023-04-10T10:57:03.157Z,98952.31
2023-04-10T10:58:07.798Z,98954.19
2023-04-10T10:59:09.856Z,98945.31
2023-04-10T11:00:12.254Z,98941.00
2023-04-10T11:01:15.094Z,98941.53
2023-04-10T11:02:20.003Z,98933.47
2023-04-10T11:03:22.994Z,98944.22
2023-04-10T11:04:57.636Z,98934.25
2023-04-10T11:06:12.804Z,98933.97
2023-04-10T11:07:16.915Z,98928.34
2023-04-10T11:09:05.584Z,98934.53
2023-04-10T11:10:09.186Z,98939.91
2023-04-10T11:11:21.941Z,98932.63
2023-04-10T11:12:26.114Z,98936.94
2023-04-10T11:13:28.610Z,98931.03
2023-04-10T11:14:31.654Z,98930.22
2023-04-10T11:15:34.708Z,98924.31
2023-04-10T11:16:47.420Z,98925.91
2023-04-10T11:17:54.711Z,98929.41
2023-04-10T11:19:12.916Z,98927.53
2023-04-10T11:20:16.329Z,98926.47
2023-04-10T11:21:22.801Z,98915.69
2023-04-10T11:22:25.454Z,98916.22
2023-04-10T11:23:27.721Z,98917.81
2023-04-10T11:24:50.698Z,98924.00
2023-04-10T11:25:55.729Z,98926.72
2023-04-10T11:26:58.638Z,98921.06
2023-04-10T11:28:00.425Z,98922.13
2023-04-10T11:29:12.713Z,98922.13
2023-04-10T11:30:35.528Z,98918.38
2023-04-10T11:31:37.592Z,98918.88
2023-04-10T11:32:43.928Z,98919.69
2023-04-10T11:33:49.470Z,98919.97
2023-04-10T11:34:51.728Z,98918.09
2023-04-10T11:35:54.778Z,98922.66
2023-04-10T11:36:58.193Z,98925.88
2023-04-10T11:38:11.132Z,98923.19
2023-04-10T11:39:19.151Z,98918.09
2023-04-10T11:40:21.206Z,98919.97
2023-04-10T11:41:30.367Z,98922.13
2023-04-10T11:42:32.665Z,98918.91
2023-04-10T11:43:35.288Z,98918.63
2023-04-10T11:44:39.434Z,98917.53
2023-04-10T11:45:42.449Z,98911.63
2023-04-10T11:46:50.854Z,98910.78
2023-04-10T11:47:54.613Z,98908.38
2023-04-10T11:49:01.277Z,98911.88
2023-04-10T11:50:03.880Z,98910.78
2023-04-10T11:51:14.241Z,98901.91
2023-04-10T11:52:25.799Z,98900.03
2023-04-10T11:53:28.731Z,98904.59
2023-04-10T11:54:31.227Z,98893.56
2023-04-10T11:55:40.910Z,98899.75
2023-04-10T11:57:01.182Z,98891.66
2023-04-10T11:58:03.098Z,98887.63
2023-04-10T11:59:11.464Z,98879.81
2023-04-10T12:00:24.549Z,98879.00
2023-04-10T12:01:26.388Z,98876.56
2023-04-10T12:02:28.523Z,98867.66
2023-04-10T12:03:39.509Z,98869.31
2023-04-10T12:04:44.340Z,98864.97
2023-04-10T12:05:49.782Z,98863.13
2023-04-10T12:06:55.808Z,98859.06
2023-04-10T12:07:57.708Z,98858.25
2023-04-10T12:08:59.749Z,98850.72
2023-04-10T12:10:02.022Z,98855.31
2023-04-10T12:11:04.413Z,98859.06
2023-04-10T12:12:08.365Z,98860.16
2023-04-10T12:13:26.092Z,98853.91
2023-04-10T12:14:43.291Z,98855.53
2023-04-10T12:15:45.185Z,98852.88
2023-04-10T12:16:47.696Z,98860.16
2023-04-10T12:17:49.916Z,98856.66
2023-04-10T12:18:53.468Z,98854.22
2023-04-10T12:19:56.422Z,98846.16
2023-04-10T12:21:00.420Z,98850.19
2023-04-10T12:22:03.113Z,98850.97
2023-04-10T12:23:05.209Z,98852.06
2023-04-10T12:24:07.008Z,98842.91
2023-04-10T12:25:12.844Z,98846.13
2023-04-10T12:26:19.011Z,98838.56
2023-04-10T12:27:27.886Z,98846.38
2023-04-10T12:28:29.734Z,98842.34
2023-04-10T12:29:33.562Z,98834.53
2023-04-10T12:30:35.614Z,98833.72
2023-04-10T12:31:37.716Z,98835.63
2023-04-10T12:32:40.423Z,98830.75
2023-04-10T12:33:47.272Z,98835.06
2023-04-10T12:34:57.877Z,98833.16
2023-04-10T12:36:00.502Z,98828.34
2023-04-10T12:37:03.274Z,98833.72
2023-04-10T12:38:05.492Z,98830.22
2023-04-10T12:39:23.811Z,98833.44
2023-04-10T12:40:25.711Z,98815.66
2023-04-10T12:41:31.707Z,98828.34